Brooklyn — WDA8190 — position and weather

sailwx.info

Track history (hours):
 
Tides and Currents Weather Stations Pressure Air Temp Water Temp Dewpoint Dewpoint Depression Visibility Wind Speed Wind Dir Waves Ship Positions

Brooklyn

Owner: PORT IMPERIAL FERRY CORP, WEEHAWKEN, NJ. More information available from US FCC via Universal Licensing System.

Last reported at 2017-Oct-16 22:30 UTC. Time now 2017-Oct-16 22:42 UTC.
Position N 40°44' W 074°01'.

Length 19 m.

Type: Passenger vessel. MMSI: 366851670.

Date/timePositionNaut miles runAvg speedWind from/ knotsBaromVisibWave heightAir tempDewpointWater temp
2017-Oct-16 22:30N 40°44' W 074°01'1 2.2
2017-Oct-16 22:00N 40°43' W 074°01'1 2.2
2017-Oct-16 21:30N 40°44' W 074°02'1 2.3
2017-Oct-16 21:00N 40°43' W 074°01'1 2.3
2017-Oct-16 20:31N 40°44' W 074°02'1 2.3
2017-Oct-16 20:00N 40°43' W 074°01'1 2.3
2017-Oct-16 19:30N 40°44' W 074°02'1 2.4
2017-Oct-16 19:00N 40°43' W 074°01'0 0.1
2017-Oct-16 18:30N 40°43' W 074°01'1 2.4
2017-Oct-16 18:00N 40°44' W 074°02'0 0.1
2017-Oct-16 17:31N 40°44' W 074°02'0 0.0
2017-Oct-16 17:01N 40°44' W 074°02'0 0.0
2017-Oct-16 16:30N 40°44' W 074°02'0 0.0
2017-Oct-16 16:01N 40°44' W 074°02'0 0.1
2017-Oct-16 15:30N 40°44' W 074°02'0 0.0
2017-Oct-16 15:01N 40°44' W 074°02'0 0.1
2017-Oct-16 14:31N 40°44' W 074°02'1 1.1
2017-Oct-16 13:30N 40°43' W 074°01'1 2.2
2017-Oct-16 13:00N 40°44' W 074°02'1 2.5
2017-Oct-16 12:30N 40°43' W 074°01'1 2.4
2017-Oct-16 12:00N 40°44' W 074°02'1 2.3
2017-Oct-16 11:31N 40°43' W 074°01'1 2.3
2017-Oct-16 11:01N 40°44' W 074°02'1 2.4
2017-Oct-16 10:31N 40°43' W 074°01'1 2.4
2017-Oct-16 10:00N 40°44' W 074°02'2 0.5
2017-Oct-16 04:57N 40°46' W 074°01'0 0.0
2017-Oct-15 01:27N 40°46' W 074°01'4 8.2
2017-Oct-15 01:01N 40°43' W 074°02'0 0.2
2017-Oct-15 00:30N 40°43' W 074°02'0 0.2
2017-Oct-15 00:01N 40°43' W 074°02'0 0.2
2017-Oct-14 23:30N 40°43' W 074°02'0 0.0
2017-Oct-14 23:00N 40°43' W 074°02'0 0.0
2017-Oct-14 22:31N 40°43' W 074°02'0 0.0
2017-Oct-14 22:00N 40°43' W 074°02'0 0.0
2017-Oct-14 21:30N 40°43' W 074°02'0 0.0
2017-Oct-14 21:00N 40°43' W 074°02'0 0.2
2017-Oct-14 20:30N 40°43' W 074°02'0 0.2
2017-Oct-14 20:00N 40°43' W 074°02'0 0.0
2017-Oct-14 19:30N 40°43' W 074°02'0 0.0
2017-Oct-14 19:00N 40°43' W 074°02'0 0.0
2017-Oct-14 18:30N 40°43' W 074°02'0 0.1
2017-Oct-14 18:00N 40°43' W 074°02'0 0.0
2017-Oct-14 17:30N 40°43' W 074°02'0 0.0
2017-Oct-14 17:00N 40°43' W 074°02'0 0.0
2017-Oct-14 16:31N 40°43' W 074°02'0 0.0
2017-Oct-14 16:00N 40°43' W 074°02'0 0.0
2017-Oct-14 15:30N 40°43' W 074°02'0 0.1
2017-Oct-14 15:00N 40°43' W 074°02'0 0.1
2017-Oct-14 14:30N 40°43' W 074°02'4 3.6
2017-Oct-14 13:30N 40°46' W 074°01'0 0.0
2017-Oct-14 01:47N 40°46' W 074°01'311.7
2017-Oct-14 01:30N 40°43' W 074°01'1 2.4
2017-Oct-14 01:00N 40°44' W 074°02'0 0.0
2017-Oct-14 00:30N 40°44' W 074°02'0 0.2
2017-Oct-14 00:01N 40°44' W 074°02'0 0.1
2017-Oct-13 23:30N 40°44' W 074°02'1 2.4
2017-Oct-13 23:00N 40°43' W 074°01'1 2.4
2017-Oct-13 22:30N 40°44' W 074°02'1 2.4
2017-Oct-13 21:59N 40°43' W 074°01'1 2.5
2017-Oct-13 21:31N 40°44' W 074°01'1 2.3
2017-Oct-13 21:00N 40°43' W 074°01'1 2.4
2017-Oct-13 20:30N 40°44' W 074°02'1 2.5
2017-Oct-13 20:00N 40°43' W 074°01'1 2.4
2017-Oct-13 19:30N 40°44' W 074°02'1 2.5
2017-Oct-13 19:00N 40°43' W 074°01'0 0.1
2017-Oct-13 18:30N 40°43' W 074°01'1 2.5
2017-Oct-13 18:00N 40°44' W 074°02'0 0.1
2017-Oct-13 17:30N 40°44' W 074°02'0 0.0
2017-Oct-13 17:00N 40°44' W 074°02'0 0.0
2017-Oct-13 16:30N 40°44' W 074°02'0 0.1
2017-Oct-13 16:00N 40°44' W 074°02'0 0.0
2017-Oct-13 15:30N 40°44' W 074°02'0 0.0
2017-Oct-13 15:01N 40°44' W 074°02'0 0.0
2017-Oct-13 14:30N 40°44' W 074°02'0 0.0
2017-Oct-13 14:00N 40°44' W 074°02'1 2.5
2017-Oct-13 13:30N 40°43' W 074°01'1 2.4
2017-Oct-13 12:59N 40°44' W 074°02'1 2.5
2017-Oct-13 12:30N 40°43' W 074°01'1 2.5
2017-Oct-13 12:00N 40°44' W 074°02'1 2.2
2017-Oct-13 11:30N 40°43' W 074°01'1 2.2
2017-Oct-13 11:00N 40°44' W 074°02'1 2.5
2017-Oct-13 10:30N 40°43' W 074°01'1 2.4
2017-Oct-13 10:00N 40°44' W 074°02'2 0.3
2017-Oct-13 01:48N 40°46' W 074°01'311.1
2017-Oct-13 01:30N 40°43' W 074°01'1 2.5
2017-Oct-13 01:00N 40°44' W 074°02'0 0.0
2017-Oct-13 00:30N 40°44' W 074°02'0 0.1
2017-Oct-13 00:00N 40°44' W 074°02'0 0.0
2017-Oct-12 23:30N 40°44' W 074°02'1 2.4
2017-Oct-12 23:00N 40°43' W 074°01'1 2.4
2017-Oct-12 22:30N 40°44' W 074°02'1 2.4
2017-Oct-12 22:00N 40°43' W 074°01'1 2.4
2017-Oct-12 21:29N 40°44' W 074°02'1 2.5
2017-Oct-12 21:00N 40°43' W 074°01'1 2.5
2017-Oct-12 20:30N 40°44' W 074°02'1 2.5
2017-Oct-12 20:00N 40°43' W 074°01'1 2.5
2017-Oct-12 19:30N 40°44' W 074°02'1 2.4
2017-Oct-12 19:00N 40°43' W 074°01'0 0.0
2017-Oct-12 18:30N 40°43' W 074°01'1 2.5
2017-Oct-12 18:00N 40°44' W 074°02'0 0.0
2017-Oct-12 17:30N 40°44' W 074°02'0 0.0
2017-Oct-12 17:00N 40°44' W 074°02'0 0.0
2017-Oct-12 16:30N 40°44' W 074°02'0 0.2
2017-Oct-12 16:00N 40°44' W 074°01'0 0.2
2017-Oct-12 15:30N 40°44' W 074°02'0 0.0
2017-Oct-12 15:00N 40°44' W 074°02'0 0.0
2017-Oct-12 14:30N 40°44' W 074°02'0 0.0
2017-Oct-12 14:00N 40°44' W 074°02'1 2.5
2017-Oct-12 13:30N 40°43' W 074°01'1 2.5
2017-Oct-12 13:00N 40°44' W 074°02'1 2.5
2017-Oct-12 12:30N 40°43' W 074°01'1 2.5
2017-Oct-12 12:00N 40°44' W 074°02'1 2.5
2017-Oct-12 11:30N 40°43' W 074°01'1 2.5
2017-Oct-12 11:00N 40°44' W 074°02'1 2.4
2017-Oct-12 10:30N 40°43' W 074°01'1 2.5
2017-Oct-12 10:00N 40°44' W 074°02'2 0.2
2017-Oct-11 20:56N 40°46' W 074°01'4 9.4
2017-Oct-11 20:30N 40°42' W 074°00'2 3.1
2017-Oct-11 20:00N 40°43' W 074°02'3 5.5
2017-Oct-11 19:30N 40°46' W 074°00'3 5.7
2017-Oct-11 19:00N 40°43' W 074°02'3 6.4
2017-Oct-11 18:30N 40°46' W 074°01'0 0.0
2017-Oct-11 18:00N 40°46' W 074°01'2 3.5
2017-Oct-11 17:31N 40°45' W 074°01'1 1.2
2017-Oct-11 17:01N 40°44' W 074°01'0 0.0
2017-Oct-11 00:01N 40°44' W 074°02'0 0.1
2017-Oct-10 23:30N 40°44' W 074°02'1 2.5
2017-Oct-10 23:00N 40°43' W 074°01'1 2.3
2017-Oct-10 22:31N 40°44' W 074°01'1 2.3
2017-Oct-10 22:01N 40°43' W 074°01'1 2.4
2017-Oct-10 21:31N 40°44' W 074°02'1 2.4
2017-Oct-10 21:01N 40°43' W 074°01'1 2.4
2017-Oct-10 20:30N 40°44' W 074°02'1 2.4
2017-Oct-10 20:00N 40°43' W 074°01'1 2.4
2017-Oct-10 19:31N 40°44' W 074°02'1 2.4
2017-Oct-10 19:00N 40°43' W 074°01'0 0.2
2017-Oct-10 18:30N 40°43' W 074°01'1 2.2
2017-Oct-10 18:00N 40°44' W 074°02'0 0.1
2017-Oct-10 17:31N 40°44' W 074°02'0 0.3
2017-Oct-10 17:01N 40°44' W 074°01'0 0.0
2017-Oct-10 16:31N 40°44' W 074°01'0 0.3
2017-Oct-10 16:01N 40°44' W 074°02'0 0.2
2017-Oct-10 15:30N 40°44' W 074°01'0 0.1
2017-Oct-10 15:00N 40°44' W 074°01'0 0.1
2017-Oct-10 14:00N 40°44' W 074°02'1 2.3
2017-Oct-10 13:30N 40°43' W 074°01'1 2.3
2017-Oct-10 13:01N 40°44' W 074°02'1 2.5
2017-Oct-10 12:30N 40°43' W 074°01'1 2.5
2017-Oct-10 12:00N 40°44' W 074°02'1 2.5
2017-Oct-10 11:31N 40°43' W 074°01'1 2.4
2017-Oct-10 11:00N 40°44' W 074°02'1 2.4
2017-Oct-10 10:30N 40°43' W 074°01'1 2.4
2017-Oct-10 10:00N 40°44' W 074°02'2 4.5
2017-Oct-10 09:31N 40°46' W 074°01'0 0.0
2017-Oct-10 01:48N 40°46' W 074°01'311.8
2017-Oct-10 01:30N 40°43' W 074°01'1 2.3
2017-Oct-10 01:01N 40°44' W 074°01'0 0.2
2017-Oct-10 00:30N 40°44' W 074°02'0 0.1
2017-Oct-10 00:01N 40°44' W 074°02'0 0.1
2017-Oct-09 23:30N 40°44' W 074°02'1 2.4
2017-Oct-09 23:00N 40°43' W 074°01'1 2.3
2017-Oct-09 22:30N 40°44' W 074°02'1 2.3
2017-Oct-09 22:00N 40°43' W 074°01'1 2.4
2017-Oct-09 21:30N 40°44' W 074°02'1 2.4
2017-Oct-09 21:00N 40°43' W 074°01'1 2.3
2017-Oct-09 20:30N 40°44' W 074°02'1 2.4
2017-Oct-09 20:00N 40°43' W 074°01'1 2.3
2017-Oct-09 19:31N 40°44' W 074°01'1 2.3
2017-Oct-09 19:00N 40°43' W 074°01'0 0.0
2017-Oct-09 18:30N 40°43' W 074°01'1 2.4
2017-Oct-09 18:01N 40°44' W 074°02'0 0.2
2017-Oct-09 17:30N 40°44' W 074°01'0 0.2
2017-Oct-09 17:00N 40°44' W 074°02'0 0.0
2017-Oct-09 16:31N 40°44' W 074°02'0 0.0
2017-Oct-09 16:01N 40°44' W 074°02'0 0.0
2017-Oct-09 15:31N 40°44' W 074°02'0 0.0
2017-Oct-09 15:00N 40°44' W 074°02'0 0.0
2017-Oct-09 14:30N 40°44' W 074°02'0 0.0
2017-Oct-09 14:00N 40°44' W 074°02'1 2.4
2017-Oct-09 13:30N 40°43' W 074°01'1 2.4
2017-Oct-09 13:00N 40°44' W 074°02'1 2.3
2017-Oct-09 12:30N 40°43' W 074°01'1 2.2
2017-Oct-09 12:00N 40°44' W 074°02'1 2.5
2017-Oct-09 11:30N 40°43' W 074°01'1 2.5
2017-Oct-09 11:01N 40°44' W 074°02'1 2.4
2017-Oct-09 10:30N 40°43' W 074°01'1 2.5
2017-Oct-09 10:01N 40°44' W 074°02'2 4.5
2017-Oct-09 09:30N 40°46' W 074°01'0 0.0
2017-Oct-09 09:00N 40°46' W 074°01'0 0.0
2017-Oct-09 08:31N 40°46' W 074°01'0 0.0
2017-Oct-09 08:01N 40°46' W 074°01'0 0.0
2017-Oct-09 07:30N 40°46' W 074°01'0 0.0
2017-Oct-09 07:00N 40°46' W 074°01'0 0.0
2017-Oct-09 06:31N 40°46' W 074°01'0 0.0
2017-Oct-09 06:00N 40°46' W 074°01'0 0.0
2017-Oct-09 05:30N 40°46' W 074°01'0 0.0
2017-Oct-09 05:00N 40°46' W 074°01'0 0.0
2017-Oct-09 04:31N 40°46' W 074°01'0 0.0
2017-Oct-09 04:01N 40°46' W 074°01'0 0.0
2017-Oct-08 01:19N 40°46' W 074°01'411.3
2017-Oct-08 01:01N 40°43' W 074°02'0 0.3
2017-Oct-08 00:30N 40°43' W 074°02'0 0.0
2017-Oct-08 00:00N 40°43' W 074°02'0 0.1
2017-Oct-07 23:30N 40°43' W 074°02'0 0.1
2017-Oct-07 23:00N 40°43' W 074°02'0 0.0
2017-Oct-07 22:30N 40°43' W 074°02'0 0.0
2017-Oct-07 22:00N 40°43' W 074°02'0 0.1
2017-Oct-07 21:30N 40°43' W 074°02'0 0.1
2017-Oct-07 21:00N 40°43' W 074°02'0 0.0
2017-Oct-07 20:30N 40°43' W 074°02'0 0.0
2017-Oct-07 20:00N 40°43' W 074°02'0 0.0
2017-Oct-07 19:30N 40°43' W 074°02'0 0.0
2017-Oct-07 19:00N 40°43' W 074°02'0 0.0
2017-Oct-07 18:30N 40°43' W 074°02'0 0.0
2017-Oct-07 18:00N 40°43' W 074°02'0 0.0
2017-Oct-07 17:30N 40°43' W 074°02'0 0.0
2017-Oct-07 17:00N 40°43' W 074°02'0 0.0
2017-Oct-07 16:30N 40°43' W 074°02'0 0.0
2017-Oct-07 16:00N 40°43' W 074°02'0 0.0
2017-Oct-07 15:30N 40°43' W 074°02'0 0.0
2017-Oct-07 15:00N 40°43' W 074°02'0 0.0
2017-Oct-07 14:30N 40°43' W 074°02'0 0.0
2017-Oct-07 14:00N 40°43' W 074°02'  
Track history (hours):
 
Tides and Currents Weather Stations Pressure Air Temp Water Temp Dewpoint Dewpoint Depression Visibility Wind Speed Wind Dir Waves Ship Positions

Brooklyn

Owner: PORT IMPERIAL FERRY CORP, WEEHAWKEN, NJ. More information available from US FCC via Universal Licensing System.

Last reported at 2017-Oct-16 22:30 UTC. Time now 2017-Oct-16 22:42 UTC.
Position N 40°44' W 074°01'.

Length 19 m.

Type: Passenger vessel. MMSI: 366851670.

Date/timePositionNaut miles runAvg speedWind from/ knotsBaromVisibWave heightAir tempDewpointWater temp
2017-Oct-16 22:30N 40°44' W 074°01'1 2.2
2017-Oct-16 22:00N 40°43' W 074°01'1 2.2
2017-Oct-16 21:30N 40°44' W 074°02'1 2.3
2017-Oct-16 21:00N 40°43' W 074°01'1 2.3
2017-Oct-16 20:31N 40°44' W 074°02'1 2.3
2017-Oct-16 20:00N 40°43' W 074°01'1 2.3
2017-Oct-16 19:30N 40°44' W 074°02'1 2.4
2017-Oct-16 19:00N 40°43' W 074°01'0 0.1
2017-Oct-16 18:30N 40°43' W 074°01'1 2.4
2017-Oct-16 18:00N 40°44' W 074°02'0 0.1
2017-Oct-16 17:31N 40°44' W 074°02'0 0.0
2017-Oct-16 17:01N 40°44' W 074°02'0 0.0
2017-Oct-16 16:30N 40°44' W 074°02'0 0.0
2017-Oct-16 16:01N 40°44' W 074°02'0 0.1
2017-Oct-16 15:30N 40°44' W 074°02'0 0.0
2017-Oct-16 15:01N 40°44' W 074°02'0 0.1
2017-Oct-16 14:31N 40°44' W 074°02'1 1.1
2017-Oct-16 13:30N 40°43' W 074°01'1 2.2
2017-Oct-16 13:00N 40°44' W 074°02'1 2.5
2017-Oct-16 12:30N 40°43' W 074°01'1 2.4
2017-Oct-16 12:00N 40°44' W 074°02'1 2.3
2017-Oct-16 11:31N 40°43' W 074°01'1 2.3
2017-Oct-16 11:01N 40°44' W 074°02'1 2.4
2017-Oct-16 10:31N 40°43' W 074°01'1 2.4
2017-Oct-16 10:00N 40°44' W 074°02'2 0.5
2017-Oct-16 04:57N 40°46' W 074°01'0 0.0
2017-Oct-15 01:27N 40°46' W 074°01'4 8.2
2017-Oct-15 01:01N 40°43' W 074°02'0 0.2
2017-Oct-15 00:30N 40°43' W 074°02'0 0.2
2017-Oct-15 00:01N 40°43' W 074°02'0 0.2
2017-Oct-14 23:30N 40°43' W 074°02'0 0.0
2017-Oct-14 23:00N 40°43' W 074°02'0 0.0
2017-Oct-14 22:31N 40°43' W 074°02'0 0.0
2017-Oct-14 22:00N 40°43' W 074°02'0 0.0
2017-Oct-14 21:30N 40°43' W 074°02'0 0.0
2017-Oct-14 21:00N 40°43' W 074°02'0 0.2
2017-Oct-14 20:30N 40°43' W 074°02'0 0.2
2017-Oct-14 20:00N 40°43' W 074°02'0 0.0
2017-Oct-14 19:30N 40°43' W 074°02'0 0.0
2017-Oct-14 19:00N 40°43' W 074°02'0 0.0
2017-Oct-14 18:30N 40°43' W 074°02'0 0.1
2017-Oct-14 18:00N 40°43' W 074°02'0 0.0
2017-Oct-14 17:30N 40°43' W 074°02'0 0.0
2017-Oct-14 17:00N 40°43' W 074°02'0 0.0
2017-Oct-14 16:31N 40°43' W 074°02'0 0.0
2017-Oct-14 16:00N 40°43' W 074°02'0 0.0
2017-Oct-14 15:30N 40°43' W 074°02'0 0.1
2017-Oct-14 15:00N 40°43' W 074°02'0 0.1
2017-Oct-14 14:30N 40°43' W 074°02'4 3.6
2017-Oct-14 13:30N 40°46' W 074°01'0 0.0
2017-Oct-14 01:47N 40°46' W 074°01'311.7
2017-Oct-14 01:30N 40°43' W 074°01'1 2.4
2017-Oct-14 01:00N 40°44' W 074°02'0 0.0
2017-Oct-14 00:30N 40°44' W 074°02'0 0.2
2017-Oct-14 00:01N 40°44' W 074°02'0 0.1
2017-Oct-13 23:30N 40°44' W 074°02'1 2.4
2017-Oct-13 23:00N 40°43' W 074°01'1 2.4
2017-Oct-13 22:30N 40°44' W 074°02'1 2.4
2017-Oct-13 21:59N 40°43' W 074°01'1 2.5
2017-Oct-13 21:31N 40°44' W 074°01'1 2.3
2017-Oct-13 21:00N 40°43' W 074°01'1 2.4
2017-Oct-13 20:30N 40°44' W 074°02'1 2.5
2017-Oct-13 20:00N 40°43' W 074°01'1 2.4
2017-Oct-13 19:30N 40°44' W 074°02'1 2.5
2017-Oct-13 19:00N 40°43' W 074°01'0 0.1
2017-Oct-13 18:30N 40°43' W 074°01'1 2.5
2017-Oct-13 18:00N 40°44' W 074°02'0 0.1
2017-Oct-13 17:30N 40°44' W 074°02'0 0.0
2017-Oct-13 17:00N 40°44' W 074°02'0 0.0
2017-Oct-13 16:30N 40°44' W 074°02'0 0.1
2017-Oct-13 16:00N 40°44' W 074°02'0 0.0
2017-Oct-13 15:30N 40°44' W 074°02'0 0.0
2017-Oct-13 15:01N 40°44' W 074°02'0 0.0
2017-Oct-13 14:30N 40°44' W 074°02'0 0.0
2017-Oct-13 14:00N 40°44' W 074°02'1 2.5
2017-Oct-13 13:30N 40°43' W 074°01'1 2.4
2017-Oct-13 12:59N 40°44' W 074°02'1 2.5
2017-Oct-13 12:30N 40°43' W 074°01'1 2.5
2017-Oct-13 12:00N 40°44' W 074°02'1 2.2
2017-Oct-13 11:30N 40°43' W 074°01'1 2.2
2017-Oct-13 11:00N 40°44' W 074°02'1 2.5
2017-Oct-13 10:30N 40°43' W 074°01'1 2.4
2017-Oct-13 10:00N 40°44' W 074°02'2 0.3
2017-Oct-13 01:48N 40°46' W 074°01'311.1
2017-Oct-13 01:30N 40°43' W 074°01'1 2.5
2017-Oct-13 01:00N 40°44' W 074°02'0 0.0
2017-Oct-13 00:30N 40°44' W 074°02'0 0.1
2017-Oct-13 00:00N 40°44' W 074°02'0 0.0
2017-Oct-12 23:30N 40°44' W 074°02'1 2.4
2017-Oct-12 23:00N 40°43' W 074°01'1 2.4
2017-Oct-12 22:30N 40°44' W 074°02'1 2.4
2017-Oct-12 22:00N 40°43' W 074°01'1 2.4
2017-Oct-12 21:29N 40°44' W 074°02'1 2.5
2017-Oct-12 21:00N 40°43' W 074°01'1 2.5
2017-Oct-12 20:30N 40°44' W 074°02'1 2.5
2017-Oct-12 20:00N 40°43' W 074°01'1 2.5
2017-Oct-12 19:30N 40°44' W 074°02'1 2.4
2017-Oct-12 19:00N 40°43' W 074°01'0 0.0
2017-Oct-12 18:30N 40°43' W 074°01'1 2.5
2017-Oct-12 18:00N 40°44' W 074°02'0 0.0
2017-Oct-12 17:30N 40°44' W 074°02'0 0.0
2017-Oct-12 17:00N 40°44' W 074°02'0 0.0
2017-Oct-12 16:30N 40°44' W 074°02'0 0.2
2017-Oct-12 16:00N 40°44' W 074°01'0 0.2
2017-Oct-12 15:30N 40°44' W 074°02'0 0.0
2017-Oct-12 15:00N 40°44' W 074°02'0 0.0
2017-Oct-12 14:30N 40°44' W 074°02'0 0.0
2017-Oct-12 14:00N 40°44' W 074°02'1 2.5
2017-Oct-12 13:30N 40°43' W 074°01'1 2.5
2017-Oct-12 13:00N 40°44' W 074°02'1 2.5
2017-Oct-12 12:30N 40°43' W 074°01'1 2.5
2017-Oct-12 12:00N 40°44' W 074°02'1 2.5
2017-Oct-12 11:30N 40°43' W 074°01'1 2.5
2017-Oct-12 11:00N 40°44' W 074°02'1 2.4
2017-Oct-12 10:30N 40°43' W 074°01'1 2.5
2017-Oct-12 10:00N 40°44' W 074°02'2 0.2
2017-Oct-11 20:56N 40°46' W 074°01'4 9.4
2017-Oct-11 20:30N 40°42' W 074°00'2 3.1
2017-Oct-11 20:00N 40°43' W 074°02'3 5.5
2017-Oct-11 19:30N 40°46' W 074°00'3 5.7
2017-Oct-11 19:00N 40°43' W 074°02'3 6.4
2017-Oct-11 18:30N 40°46' W 074°01'0 0.0
2017-Oct-11 18:00N 40°46' W 074°01'2 3.5
2017-Oct-11 17:31N 40°45' W 074°01'1 1.2
2017-Oct-11 17:01N 40°44' W 074°01'0 0.0
2017-Oct-11 00:01N 40°44' W 074°02'0 0.1
2017-Oct-10 23:30N 40°44' W 074°02'1 2.5
2017-Oct-10 23:00N 40°43' W 074°01'1 2.3
2017-Oct-10 22:31N 40°44' W 074°01'1 2.3
2017-Oct-10 22:01N 40°43' W 074°01'1 2.4
2017-Oct-10 21:31N 40°44' W 074°02'1 2.4
2017-Oct-10 21:01N 40°43' W 074°01'1 2.4
2017-Oct-10 20:30N 40°44' W 074°02'1 2.4
2017-Oct-10 20:00N 40°43' W 074°01'1 2.4
2017-Oct-10 19:31N 40°44' W 074°02'1 2.4
2017-Oct-10 19:00N 40°43' W 074°01'0 0.2
2017-Oct-10 18:30N 40°43' W 074°01'1 2.2
2017-Oct-10 18:00N 40°44' W 074°02'0 0.1
2017-Oct-10 17:31N 40°44' W 074°02'0 0.3
2017-Oct-10 17:01N 40°44' W 074°01'0 0.0
2017-Oct-10 16:31N 40°44' W 074°01'0 0.3
2017-Oct-10 16:01N 40°44' W 074°02'0 0.2
2017-Oct-10 15:30N 40°44' W 074°01'0 0.1
2017-Oct-10 15:00N 40°44' W 074°01'0 0.1
2017-Oct-10 14:00N 40°44' W 074°02'1 2.3
2017-Oct-10 13:30N 40°43' W 074°01'1 2.3
2017-Oct-10 13:01N 40°44' W 074°02'1 2.5
2017-Oct-10 12:30N 40°43' W 074°01'1 2.5
2017-Oct-10 12:00N 40°44' W 074°02'1 2.5
2017-Oct-10 11:31N 40°43' W 074°01'1 2.4
2017-Oct-10 11:00N 40°44' W 074°02'1 2.4
2017-Oct-10 10:30N 40°43' W 074°01'1 2.4
2017-Oct-10 10:00N 40°44' W 074°02'2 4.5
2017-Oct-10 09:31N 40°46' W 074°01'0 0.0
2017-Oct-10 01:48N 40°46' W 074°01'311.8
2017-Oct-10 01:30N 40°43' W 074°01'1 2.3
2017-Oct-10 01:01N 40°44' W 074°01'0 0.2
2017-Oct-10 00:30N 40°44' W 074°02'0 0.1
2017-Oct-10 00:01N 40°44' W 074°02'0 0.1
2017-Oct-09 23:30N 40°44' W 074°02'1 2.4
2017-Oct-09 23:00N 40°43' W 074°01'1 2.3
2017-Oct-09 22:30N 40°44' W 074°02'1 2.3
2017-Oct-09 22:00N 40°43' W 074°01'1 2.4
2017-Oct-09 21:30N 40°44' W 074°02'1 2.4
2017-Oct-09 21:00N 40°43' W 074°01'1 2.3
2017-Oct-09 20:30N 40°44' W 074°02'1 2.4
2017-Oct-09 20:00N 40°43' W 074°01'1 2.3
2017-Oct-09 19:31N 40°44' W 074°01'1 2.3
2017-Oct-09 19:00N 40°43' W 074°01'0 0.0
2017-Oct-09 18:30N 40°43' W 074°01'1 2.4
2017-Oct-09 18:01N 40°44' W 074°02'0 0.2
2017-Oct-09 17:30N 40°44' W 074°01'0 0.2
2017-Oct-09 17:00N 40°44' W 074°02'0 0.0
2017-Oct-09 16:31N 40°44' W 074°02'0 0.0
2017-Oct-09 16:01N 40°44' W 074°02'0 0.0
2017-Oct-09 15:31N 40°44' W 074°02'0 0.0
2017-Oct-09 15:00N 40°44' W 074°02'0 0.0
2017-Oct-09 14:30N 40°44' W 074°02'0 0.0
2017-Oct-09 14:00N 40°44' W 074°02'1 2.4
2017-Oct-09 13:30N 40°43' W 074°01'1 2.4
2017-Oct-09 13:00N 40°44' W 074°02'1 2.3
2017-Oct-09 12:30N 40°43' W 074°01'1 2.2
2017-Oct-09 12:00N 40°44' W 074°02'1 2.5
2017-Oct-09 11:30N 40°43' W 074°01'1 2.5
2017-Oct-09 11:01N 40°44' W 074°02'1 2.4
2017-Oct-09 10:30N 40°43' W 074°01'1 2.5
2017-Oct-09 10:01N 40°44' W 074°02'2 4.5
2017-Oct-09 09:30N 40°46' W 074°01'0 0.0
2017-Oct-09 09:00N 40°46' W 074°01'0 0.0
2017-Oct-09 08:31N 40°46' W 074°01'0 0.0
2017-Oct-09 08:01N 40°46' W 074°01'0 0.0
2017-Oct-09 07:30N 40°46' W 074°01'0 0.0
2017-Oct-09 07:00N 40°46' W 074°01'0 0.0
2017-Oct-09 06:31N 40°46' W 074°01'0 0.0
2017-Oct-09 06:00N 40°46' W 074°01'0 0.0
2017-Oct-09 05:30N 40°46' W 074°01'0 0.0
2017-Oct-09 05:00N 40°46' W 074°01'0 0.0
2017-Oct-09 04:31N 40°46' W 074°01'0 0.0
2017-Oct-09 04:01N 40°46' W 074°01'0 0.0
2017-Oct-08 01:19N 40°46' W 074°01'411.3
2017-Oct-08 01:01N 40°43' W 074°02'0 0.3
2017-Oct-08 00:30N 40°43' W 074°02'0 0.0
2017-Oct-08 00:00N 40°43' W 074°02'0 0.1
2017-Oct-07 23:30N 40°43' W 074°02'0 0.1
2017-Oct-07 23:00N 40°43' W 074°02'0 0.0
2017-Oct-07 22:30N 40°43' W 074°02'0 0.0
2017-Oct-07 22:00N 40°43' W 074°02'0 0.1
2017-Oct-07 21:30N 40°43' W 074°02'0 0.1
2017-Oct-07 21:00N 40°43' W 074°02'0 0.0
2017-Oct-07 20:30N 40°43' W 074°02'0 0.0
2017-Oct-07 20:00N 40°43' W 074°02'0 0.0
2017-Oct-07 19:30N 40°43' W 074°02'0 0.0
2017-Oct-07 19:00N 40°43' W 074°02'0 0.0
2017-Oct-07 18:30N 40°43' W 074°02'0 0.0
2017-Oct-07 18:00N 40°43' W 074°02'0 0.0
2017-Oct-07 17:30N 40°43' W 074°02'0 0.0
2017-Oct-07 17:00N 40°43' W 074°02'0 0.0
2017-Oct-07 16:30N 40°43' W 074°02'0 0.0
2017-Oct-07 16:00N 40°43' W 074°02'0 0.0
2017-Oct-07 15:30N 40°43' W 074°02'0 0.0
2017-Oct-07 15:00N 40°43' W 074°02'0 0.0
2017-Oct-07 14:30N 40°43' W 074°02'0 0.0
2017-Oct-07 14:00N 40°43' W 074°02'  

Dump ship's entire track history